<?xml version="1.0" encoding="UTF-8" standalone="no" ?>
<gpx xmlns="http://www.topografix.com/GPX/1/1" xmlns:xsi="http://www.w3.org/2001/XMLSchema-instance" xsi:schemaLocation="http://www.topografix.com/GPX/1/1 http://www.topografix.com/GPX/1/1/gpx.xsd" version="1.1" creator="VisuGPX - https://www.visugpx.com">
  <metadata>
    <name>ARQUES LA SEYNE SUR MER 1497 KM</name>
    <desc><![CDATA[Rando de Arques dans le Pas de Calais jusque La Seyne sur Mer dans le Var, 1497 km]]></desc>
  </metadata>
  <trk>
    <name><![CDATA[56 - VELAUX MARSEILLE 15ème 27.9 km]]></name>
    <extensions>
      <line xmlns="http://www.topografix.com/GPX/gpx_style/0/2">
        <color>000088</color>
        <width>4</width>
      </line>
    </extensions>
    <trkseg>
      <trkpt lat="43.51599" lon="5.23208">
        <ele>40</ele>
        <time>2021-12-17T11:06:56+01:00</time>
      </trkpt>
      <trkpt lat="43.51328" lon="5.23405">
        <ele>43</ele>
        <time>2021-12-17T11:07:01+01:00</time>
      </trkpt>
      <trkpt lat="43.51336" lon="5.23578">
        <ele>45</ele>
        <time>2021-12-17T11:07:06+01:00</time>
      </trkpt>
      <trkpt lat="43.51326" lon="5.2367">
        <ele>44</ele>
        <time>2021-12-17T11:07:11+01:00</time>
      </trkpt>
      <trkpt lat="43.51407" lon="5.23932">
        <ele>47</ele>
        <time>2021-12-17T11:07:16+01:00</time>
      </trkpt>
      <trkpt lat="43.51542" lon="5.24299">
        <ele>59</ele>
        <time>2021-12-17T11:07:21+01:00</time>
      </trkpt>
      <trkpt lat="43.51519" lon="5.24397">
        <ele>60</ele>
        <time>2021-12-17T11:07:26+01:00</time>
      </trkpt>
      <trkpt lat="43.5144" lon="5.24519">
        <ele>57</ele>
        <time>2021-12-17T11:07:31+01:00</time>
      </trkpt>
      <trkpt lat="43.51632" lon="5.2482">
        <ele>61</ele>
        <time>2021-12-17T11:07:36+01:00</time>
      </trkpt>
      <trkpt lat="43.5169" lon="5.2505">
        <ele>60</ele>
        <time>2021-12-17T11:07:41+01:00</time>
      </trkpt>
      <trkpt lat="43.51813" lon="5.25426">
        <ele>71</ele>
        <time>2021-12-17T11:07:46+01:00</time>
      </trkpt>
      <trkpt lat="43.5185" lon="5.25597">
        <ele>85</ele>
        <time>2021-12-17T11:07:51+01:00</time>
      </trkpt>
      <trkpt lat="43.51956" lon="5.25779">
        <ele>109</ele>
        <time>2021-12-17T11:07:56+01:00</time>
      </trkpt>
      <trkpt lat="43.51896" lon="5.25737">
        <ele>106</ele>
        <time>2021-12-17T11:08:01+01:00</time>
      </trkpt>
      <trkpt lat="43.51844" lon="5.25758">
        <ele>106</ele>
        <time>2021-12-17T11:08:06+01:00</time>
      </trkpt>
      <trkpt lat="43.51805" lon="5.25881">
        <ele>99</ele>
        <time>2021-12-17T11:08:11+01:00</time>
      </trkpt>
      <trkpt lat="43.51701" lon="5.2594">
        <ele>97</ele>
        <time>2021-12-17T11:08:16+01:00</time>
      </trkpt>
      <trkpt lat="43.51612" lon="5.25922">
        <ele>92</ele>
        <time>2021-12-17T11:08:21+01:00</time>
      </trkpt>
      <trkpt lat="43.51296" lon="5.2597">
        <ele>91</ele>
        <time>2021-12-17T11:08:26+01:00</time>
      </trkpt>
      <trkpt lat="43.5114" lon="5.25967">
        <ele>98</ele>
        <time>2021-12-17T11:08:31+01:00</time>
      </trkpt>
      <trkpt lat="43.51062" lon="5.25979">
        <ele>99</ele>
        <time>2021-12-17T11:08:36+01:00</time>
      </trkpt>
      <trkpt lat="43.50627" lon="5.2591">
        <ele>91</ele>
        <time>2021-12-17T11:08:41+01:00</time>
      </trkpt>
      <trkpt lat="43.50572" lon="5.25937">
        <ele>92</ele>
        <time>2021-12-17T11:08:46+01:00</time>
      </trkpt>
      <trkpt lat="43.50514" lon="5.25901">
        <ele>98</ele>
        <time>2021-12-17T11:08:51+01:00</time>
      </trkpt>
      <trkpt lat="43.50427" lon="5.25809">
        <ele>103</ele>
        <time>2021-12-17T11:08:56+01:00</time>
      </trkpt>
      <trkpt lat="43.50408" lon="5.25836">
        <ele>98</ele>
        <time>2021-12-17T11:09:01+01:00</time>
      </trkpt>
      <trkpt lat="43.50319" lon="5.25797">
        <ele>104</ele>
        <time>2021-12-17T11:09:06+01:00</time>
      </trkpt>
      <trkpt lat="43.5033" lon="5.25684">
        <ele>112</ele>
        <time>2021-12-17T11:09:11+01:00</time>
      </trkpt>
      <trkpt lat="43.50395" lon="5.25651">
        <ele>119</ele>
        <time>2021-12-17T11:09:16+01:00</time>
      </trkpt>
      <trkpt lat="43.50443" lon="5.25501">
        <ele>124</ele>
        <time>2021-12-17T11:09:21+01:00</time>
      </trkpt>
      <trkpt lat="43.50423" lon="5.2543">
        <ele>133</ele>
        <time>2021-12-17T11:09:26+01:00</time>
      </trkpt>
      <trkpt lat="43.50456" lon="5.25346">
        <ele>137</ele>
        <time>2021-12-17T11:09:31+01:00</time>
      </trkpt>
      <trkpt lat="43.50423" lon="5.25125">
        <ele>160</ele>
        <time>2021-12-17T11:09:36+01:00</time>
      </trkpt>
      <trkpt lat="43.50475" lon="5.25018">
        <ele>172</ele>
        <time>2021-12-17T11:09:41+01:00</time>
      </trkpt>
      <trkpt lat="43.50575" lon="5.24955">
        <ele>180</ele>
        <time>2021-12-17T11:09:46+01:00</time>
      </trkpt>
      <trkpt lat="43.50391" lon="5.24824">
        <ele>177</ele>
        <time>2021-12-17T11:09:51+01:00</time>
      </trkpt>
      <trkpt lat="43.50263" lon="5.24824">
        <ele>177</ele>
        <time>2021-12-17T11:09:56+01:00</time>
      </trkpt>
      <trkpt lat="43.50124" lon="5.24898">
        <ele>175</ele>
        <time>2021-12-17T11:10:01+01:00</time>
      </trkpt>
      <trkpt lat="43.5002" lon="5.24901">
        <ele>175</ele>
        <time>2021-12-17T11:10:06+01:00</time>
      </trkpt>
      <trkpt lat="43.49801" lon="5.24916">
        <ele>172</ele>
        <time>2021-12-17T11:10:11+01:00</time>
      </trkpt>
      <trkpt lat="43.49713" lon="5.24922">
        <ele>176</ele>
        <time>2021-12-17T11:10:16+01:00</time>
      </trkpt>
      <trkpt lat="43.49511" lon="5.24847">
        <ele>174</ele>
        <time>2021-12-17T11:10:21+01:00</time>
      </trkpt>
      <trkpt lat="43.49349" lon="5.24815">
        <ele>174</ele>
        <time>2021-12-17T11:10:26+01:00</time>
      </trkpt>
      <trkpt lat="43.49167" lon="5.24827">
        <ele>170</ele>
        <time>2021-12-17T11:10:31+01:00</time>
      </trkpt>
      <trkpt lat="43.49052" lon="5.24862">
        <ele>167</ele>
        <time>2021-12-17T11:10:36+01:00</time>
      </trkpt>
      <trkpt lat="43.4897" lon="5.24844">
        <ele>166</ele>
        <time>2021-12-17T11:10:41+01:00</time>
      </trkpt>
      <trkpt lat="43.4892" lon="5.24919">
        <ele>167</ele>
        <time>2021-12-17T11:10:46+01:00</time>
      </trkpt>
      <trkpt lat="43.48736" lon="5.24991">
        <ele>163</ele>
        <time>2021-12-17T11:10:51+01:00</time>
      </trkpt>
      <trkpt lat="43.48766" lon="5.25062">
        <ele>160</ele>
        <time>2021-12-17T11:10:56+01:00</time>
      </trkpt>
      <trkpt lat="43.48822" lon="5.2528">
        <ele>166</ele>
        <time>2021-12-17T11:11:01+01:00</time>
      </trkpt>
      <trkpt lat="43.48874" lon="5.2543">
        <ele>167</ele>
        <time>2021-12-17T11:11:06+01:00</time>
      </trkpt>
      <trkpt lat="43.48896" lon="5.25507">
        <ele>172</ele>
        <time>2021-12-17T11:11:11+01:00</time>
      </trkpt>
      <trkpt lat="43.48866" lon="5.25558">
        <ele>177</ele>
        <time>2021-12-17T11:11:16+01:00</time>
      </trkpt>
      <trkpt lat="43.48905" lon="5.25576">
        <ele>174</ele>
        <time>2021-12-17T11:11:21+01:00</time>
      </trkpt>
      <trkpt lat="43.48824" lon="5.25734">
        <ele>195</ele>
        <time>2021-12-17T11:11:26+01:00</time>
      </trkpt>
      <trkpt lat="43.48814" lon="5.25806">
        <ele>205</ele>
        <time>2021-12-17T11:11:31+01:00</time>
      </trkpt>
      <trkpt lat="43.48775" lon="5.25851">
        <ele>205</ele>
        <time>2021-12-17T11:11:36+01:00</time>
      </trkpt>
      <trkpt lat="43.48647" lon="5.25904">
        <ele>204</ele>
        <time>2021-12-17T11:11:41+01:00</time>
      </trkpt>
      <trkpt lat="43.48409" lon="5.25934">
        <ele>203</ele>
        <time>2021-12-17T11:11:46+01:00</time>
      </trkpt>
      <trkpt lat="43.48296" lon="5.25946">
        <ele>206</ele>
        <time>2021-12-17T11:11:51+01:00</time>
      </trkpt>
      <trkpt lat="43.48201" lon="5.25931">
        <ele>208</ele>
        <time>2021-12-17T11:11:56+01:00</time>
      </trkpt>
      <trkpt lat="43.48016" lon="5.25794">
        <ele>209</ele>
        <time>2021-12-17T11:12:01+01:00</time>
      </trkpt>
      <trkpt lat="43.48025" lon="5.25728">
        <ele>210</ele>
        <time>2021-12-17T11:12:06+01:00</time>
      </trkpt>
      <trkpt lat="43.47865" lon="5.25594">
        <ele>208</ele>
        <time>2021-12-17T11:12:11+01:00</time>
      </trkpt>
      <trkpt lat="43.47761" lon="5.25415">
        <ele>205</ele>
        <time>2021-12-17T11:12:16+01:00</time>
      </trkpt>
      <trkpt lat="43.47579" lon="5.25206">
        <ele>205</ele>
        <time>2021-12-17T11:12:21+01:00</time>
      </trkpt>
      <trkpt lat="43.47408" lon="5.24976">
        <ele>214</ele>
        <time>2021-12-17T11:12:26+01:00</time>
      </trkpt>
      <trkpt lat="43.47191" lon="5.24827">
        <ele>215</ele>
        <time>2021-12-17T11:12:31+01:00</time>
      </trkpt>
      <trkpt lat="43.471" lon="5.24859">
        <ele>213</ele>
        <time>2021-12-17T11:12:36+01:00</time>
      </trkpt>
      <trkpt lat="43.47017" lon="5.24737">
        <ele>210</ele>
        <time>2021-12-17T11:12:41+01:00</time>
      </trkpt>
      <trkpt lat="43.46963" lon="5.24827">
        <ele>207</ele>
        <time>2021-12-17T11:12:46+01:00</time>
      </trkpt>
      <trkpt lat="43.46881" lon="5.24919">
        <ele>205</ele>
        <time>2021-12-17T11:12:51+01:00</time>
      </trkpt>
      <trkpt lat="43.4677" lon="5.24997">
        <ele>207</ele>
        <time>2021-12-17T11:12:56+01:00</time>
      </trkpt>
      <trkpt lat="43.46692" lon="5.25095">
        <ele>199</ele>
        <time>2021-12-17T11:13:01+01:00</time>
      </trkpt>
      <trkpt lat="43.46651" lon="5.2508">
        <ele>199</ele>
        <time>2021-12-17T11:13:06+01:00</time>
      </trkpt>
      <trkpt lat="43.46556" lon="5.2517">
        <ele>195</ele>
        <time>2021-12-17T11:13:11+01:00</time>
      </trkpt>
      <trkpt lat="43.46445" lon="5.2523">
        <ele>191</ele>
        <time>2021-12-17T11:13:16+01:00</time>
      </trkpt>
      <trkpt lat="43.46333" lon="5.25262">
        <ele>188</ele>
        <time>2021-12-17T11:13:21+01:00</time>
      </trkpt>
      <trkpt lat="43.46205" lon="5.25289">
        <ele>185</ele>
        <time>2021-12-17T11:13:26+01:00</time>
      </trkpt>
      <trkpt lat="43.46107" lon="5.25358">
        <ele>179</ele>
        <time>2021-12-17T11:13:31+01:00</time>
      </trkpt>
      <trkpt lat="43.46049" lon="5.25439">
        <ele>180</ele>
        <time>2021-12-17T11:13:36+01:00</time>
      </trkpt>
      <trkpt lat="43.46003" lon="5.25576">
        <ele>177</ele>
        <time>2021-12-17T11:13:41+01:00</time>
      </trkpt>
      <trkpt lat="43.45988" lon="5.25764">
        <ele>175</ele>
        <time>2021-12-17T11:13:46+01:00</time>
      </trkpt>
      <trkpt lat="43.45945" lon="5.25922">
        <ele>171</ele>
        <time>2021-12-17T11:13:51+01:00</time>
      </trkpt>
      <trkpt lat="43.4589" lon="5.26212">
        <ele>165</ele>
        <time>2021-12-17T11:13:56+01:00</time>
      </trkpt>
      <trkpt lat="43.45858" lon="5.26397">
        <ele>158</ele>
        <time>2021-12-17T11:14:01+01:00</time>
      </trkpt>
      <trkpt lat="43.45877" lon="5.26615">
        <ele>159</ele>
        <time>2021-12-17T11:14:06+01:00</time>
      </trkpt>
      <trkpt lat="43.45875" lon="5.26744">
        <ele>156</ele>
        <time>2021-12-17T11:14:11+01:00</time>
      </trkpt>
      <trkpt lat="43.45914" lon="5.26893">
        <ele>151</ele>
        <time>2021-12-17T11:14:16+01:00</time>
      </trkpt>
      <trkpt lat="43.45927" lon="5.27003">
        <ele>139</ele>
        <time>2021-12-17T11:14:21+01:00</time>
      </trkpt>
      <trkpt lat="43.45867" lon="5.27191">
        <ele>146</ele>
        <time>2021-12-17T11:14:26+01:00</time>
      </trkpt>
      <trkpt lat="43.45817" lon="5.27287">
        <ele>140</ele>
        <time>2021-12-17T11:14:31+01:00</time>
      </trkpt>
      <trkpt lat="43.45791" lon="5.27418">
        <ele>135</ele>
        <time>2021-12-17T11:14:36+01:00</time>
      </trkpt>
      <trkpt lat="43.4586" lon="5.27457">
        <ele>134</ele>
        <time>2021-12-17T11:14:41+01:00</time>
      </trkpt>
      <trkpt lat="43.45819" lon="5.27481">
        <ele>130</ele>
        <time>2021-12-17T11:14:46+01:00</time>
      </trkpt>
      <trkpt lat="43.45676" lon="5.27475">
        <ele>121</ele>
        <time>2021-12-17T11:14:51+01:00</time>
      </trkpt>
      <trkpt lat="43.45602" lon="5.2752">
        <ele>131</ele>
        <time>2021-12-17T11:14:56+01:00</time>
      </trkpt>
      <trkpt lat="43.45578" lon="5.27645">
        <ele>130</ele>
        <time>2021-12-17T11:15:01+01:00</time>
      </trkpt>
      <trkpt lat="43.45581" lon="5.27711">
        <ele>130</ele>
        <time>2021-12-17T11:15:06+01:00</time>
      </trkpt>
      <trkpt lat="43.45498" lon="5.27711">
        <ele>133</ele>
        <time>2021-12-17T11:15:11+01:00</time>
      </trkpt>
      <trkpt lat="43.45398" lon="5.27762">
        <ele>130</ele>
        <time>2021-12-17T11:15:16+01:00</time>
      </trkpt>
      <trkpt lat="43.45264" lon="5.2788">
        <ele>128</ele>
        <time>2021-12-17T11:15:21+01:00</time>
      </trkpt>
      <trkpt lat="43.45138" lon="5.27982">
        <ele>123</ele>
        <time>2021-12-17T11:15:26+01:00</time>
      </trkpt>
      <trkpt lat="43.45051" lon="5.27945">
        <ele>120</ele>
        <time>2021-12-17T11:15:31+01:00</time>
      </trkpt>
      <trkpt lat="43.45044" lon="5.28014">
        <ele>121</ele>
        <time>2021-12-17T11:15:36+01:00</time>
      </trkpt>
      <trkpt lat="43.44877" lon="5.28069">
        <ele>120</ele>
        <time>2021-12-17T11:15:41+01:00</time>
      </trkpt>
      <trkpt lat="43.44762" lon="5.28009">
        <ele>116</ele>
        <time>2021-12-17T11:15:46+01:00</time>
      </trkpt>
      <trkpt lat="43.44565" lon="5.28175">
        <ele>110</ele>
        <time>2021-12-17T11:15:51+01:00</time>
      </trkpt>
      <trkpt lat="43.44354" lon="5.28183">
        <ele>110</ele>
        <time>2021-12-17T11:15:56+01:00</time>
      </trkpt>
      <trkpt lat="43.44211" lon="5.28277">
        <ele>111</ele>
        <time>2021-12-17T11:16:01+01:00</time>
      </trkpt>
      <trkpt lat="43.44116" lon="5.28356">
        <ele>108</ele>
        <time>2021-12-17T11:16:06+01:00</time>
      </trkpt>
      <trkpt lat="43.43959" lon="5.28439">
        <ele>104</ele>
        <time>2021-12-17T11:16:11+01:00</time>
      </trkpt>
      <trkpt lat="43.43899" lon="5.285">
        <ele>101</ele>
        <time>2021-12-17T11:16:16+01:00</time>
      </trkpt>
      <trkpt lat="43.43792" lon="5.28537">
        <ele>97</ele>
        <time>2021-12-17T11:16:21+01:00</time>
      </trkpt>
      <trkpt lat="43.43688" lon="5.28624">
        <ele>98</ele>
        <time>2021-12-17T11:16:26+01:00</time>
      </trkpt>
      <trkpt lat="43.43593" lon="5.28575">
        <ele>101</ele>
        <time>2021-12-17T11:16:31+01:00</time>
      </trkpt>
      <trkpt lat="43.43436" lon="5.28413">
        <ele>100</ele>
        <time>2021-12-17T11:16:36+01:00</time>
      </trkpt>
      <trkpt lat="43.43113" lon="5.28424">
        <ele>95</ele>
        <time>2021-12-17T11:16:41+01:00</time>
      </trkpt>
      <trkpt lat="43.4302" lon="5.28477">
        <ele>93</ele>
        <time>2021-12-17T11:16:46+01:00</time>
      </trkpt>
      <trkpt lat="43.42872" lon="5.28688">
        <ele>95</ele>
        <time>2021-12-17T11:16:51+01:00</time>
      </trkpt>
      <trkpt lat="43.42664" lon="5.29239">
        <ele>98</ele>
        <time>2021-12-17T11:16:56+01:00</time>
      </trkpt>
      <trkpt lat="43.42593" lon="5.29284">
        <ele>93</ele>
        <time>2021-12-17T11:17:01+01:00</time>
      </trkpt>
      <trkpt lat="43.42557" lon="5.29469">
        <ele>85</ele>
        <time>2021-12-17T11:17:06+01:00</time>
      </trkpt>
      <trkpt lat="43.42514" lon="5.2954">
        <ele>88</ele>
        <time>2021-12-17T11:17:11+01:00</time>
      </trkpt>
      <trkpt lat="43.42144" lon="5.29744">
        <ele>85</ele>
        <time>2021-12-17T11:17:16+01:00</time>
      </trkpt>
      <trkpt lat="43.42029" lon="5.29759">
        <ele>86</ele>
        <time>2021-12-17T11:17:21+01:00</time>
      </trkpt>
      <trkpt lat="43.41908" lon="5.29725">
        <ele>91</ele>
        <time>2021-12-17T11:17:26+01:00</time>
      </trkpt>
      <trkpt lat="43.41848" lon="5.29786">
        <ele>93</ele>
        <time>2021-12-17T11:17:31+01:00</time>
      </trkpt>
      <trkpt lat="43.41495" lon="5.30031">
        <ele>96</ele>
        <time>2021-12-17T11:17:36+01:00</time>
      </trkpt>
      <trkpt lat="43.4138" lon="5.30061">
        <ele>106</ele>
        <time>2021-12-17T11:17:41+01:00</time>
      </trkpt>
      <trkpt lat="43.41276" lon="5.30279">
        <ele>111</ele>
        <time>2021-12-17T11:17:46+01:00</time>
      </trkpt>
      <trkpt lat="43.41099" lon="5.30691">
        <ele>131</ele>
        <time>2021-12-17T11:17:51+01:00</time>
      </trkpt>
      <trkpt lat="43.41089" lon="5.30909">
        <ele>135</ele>
        <time>2021-12-17T11:17:56+01:00</time>
      </trkpt>
      <trkpt lat="43.41099" lon="5.31096">
        <ele>146</ele>
        <time>2021-12-17T11:18:01+01:00</time>
      </trkpt>
      <trkpt lat="43.41043" lon="5.31137">
        <ele>162</ele>
        <time>2021-12-17T11:18:06+01:00</time>
      </trkpt>
      <trkpt lat="43.41012" lon="5.31166">
        <ele>144</ele>
        <time>2021-12-17T11:18:11+01:00</time>
      </trkpt>
      <trkpt lat="43.4104" lon="5.3134">
        <ele>143</ele>
        <time>2021-12-17T11:18:16+01:00</time>
      </trkpt>
      <trkpt lat="43.41069" lon="5.31482">
        <ele>145</ele>
        <time>2021-12-17T11:18:21+01:00</time>
      </trkpt>
      <trkpt lat="43.41081" lon="5.31571">
        <ele>144</ele>
        <time>2021-12-17T11:18:26+01:00</time>
      </trkpt>
      <trkpt lat="43.41084" lon="5.31722">
        <ele>139</ele>
        <time>2021-12-17T11:18:31+01:00</time>
      </trkpt>
      <trkpt lat="43.41079" lon="5.31809">
        <ele>139</ele>
        <time>2021-12-17T11:18:36+01:00</time>
      </trkpt>
      <trkpt lat="43.41071" lon="5.31833">
        <ele>138</ele>
        <time>2021-12-17T11:18:41+01:00</time>
      </trkpt>
      <trkpt lat="43.41013" lon="5.31852">
        <ele>135</ele>
        <time>2021-12-17T11:18:46+01:00</time>
      </trkpt>
      <trkpt lat="43.40986" lon="5.31908">
        <ele>136</ele>
        <time>2021-12-17T11:18:51+01:00</time>
      </trkpt>
      <trkpt lat="43.40924" lon="5.32153">
        <ele>145</ele>
        <time>2021-12-17T11:18:56+01:00</time>
      </trkpt>
      <trkpt lat="43.40907" lon="5.32174">
        <ele>146</ele>
        <time>2021-12-17T11:19:01+01:00</time>
      </trkpt>
      <trkpt lat="43.40909" lon="5.32281">
        <ele>148</ele>
        <time>2021-12-17T11:19:06+01:00</time>
      </trkpt>
      <trkpt lat="43.40929" lon="5.32463">
        <ele>155</ele>
        <time>2021-12-17T11:19:11+01:00</time>
      </trkpt>
      <trkpt lat="43.4091" lon="5.32526">
        <ele>157</ele>
        <time>2021-12-17T11:19:16+01:00</time>
      </trkpt>
      <trkpt lat="43.4087" lon="5.32591">
        <ele>160</ele>
        <time>2021-12-17T11:19:21+01:00</time>
      </trkpt>
      <trkpt lat="43.40845" lon="5.32677">
        <ele>163</ele>
        <time>2021-12-17T11:19:26+01:00</time>
      </trkpt>
      <trkpt lat="43.40836" lon="5.32802">
        <ele>164</ele>
        <time>2021-12-17T11:19:31+01:00</time>
      </trkpt>
      <trkpt lat="43.40801" lon="5.32916">
        <ele>164</ele>
        <time>2021-12-17T11:19:36+01:00</time>
      </trkpt>
      <trkpt lat="43.40743" lon="5.32987">
        <ele>168</ele>
        <time>2021-12-17T11:19:41+01:00</time>
      </trkpt>
      <trkpt lat="43.40662" lon="5.3304">
        <ele>187</ele>
        <time>2021-12-17T11:19:46+01:00</time>
      </trkpt>
      <trkpt lat="43.40573" lon="5.33147">
        <ele>190</ele>
        <time>2021-12-17T11:19:51+01:00</time>
      </trkpt>
      <trkpt lat="43.40514" lon="5.33219">
        <ele>203</ele>
        <time>2021-12-17T11:19:56+01:00</time>
      </trkpt>
      <trkpt lat="43.40412" lon="5.33228">
        <ele>202</ele>
        <time>2021-12-17T11:20:01+01:00</time>
      </trkpt>
      <trkpt lat="43.40303" lon="5.3327">
        <ele>212</ele>
        <time>2021-12-17T11:20:06+01:00</time>
      </trkpt>
      <trkpt lat="43.40199" lon="5.3332">
        <ele>221</ele>
        <time>2021-12-17T11:20:11+01:00</time>
      </trkpt>
      <trkpt lat="43.40166" lon="5.33391">
        <ele>222</ele>
        <time>2021-12-17T11:20:16+01:00</time>
      </trkpt>
      <trkpt lat="43.4018" lon="5.33498">
        <ele>231</ele>
        <time>2021-12-17T11:20:21+01:00</time>
      </trkpt>
      <trkpt lat="43.40215" lon="5.33614">
        <ele>236</ele>
        <time>2021-12-17T11:20:26+01:00</time>
      </trkpt>
      <trkpt lat="43.40194" lon="5.33768">
        <ele>242</ele>
        <time>2021-12-17T11:20:31+01:00</time>
      </trkpt>
      <trkpt lat="43.40168" lon="5.33898">
        <ele>247</ele>
        <time>2021-12-17T11:20:36+01:00</time>
      </trkpt>
      <trkpt lat="43.40114" lon="5.34002">
        <ele>240</ele>
        <time>2021-12-17T11:20:41+01:00</time>
      </trkpt>
      <trkpt lat="43.39997" lon="5.34097">
        <ele>236</ele>
        <time>2021-12-17T11:20:46+01:00</time>
      </trkpt>
      <trkpt lat="43.39881" lon="5.34185">
        <ele>229</ele>
        <time>2021-12-17T11:20:51+01:00</time>
      </trkpt>
      <trkpt lat="43.39828" lon="5.34212">
        <ele>226</ele>
        <time>2021-12-17T11:20:56+01:00</time>
      </trkpt>
      <trkpt lat="43.39882" lon="5.34356">
        <ele>243</ele>
        <time>2021-12-17T11:21:01+01:00</time>
      </trkpt>
      <trkpt lat="43.39955" lon="5.34413">
        <ele>250</ele>
        <time>2021-12-17T11:21:06+01:00</time>
      </trkpt>
      <trkpt lat="43.39904" lon="5.34472">
        <ele>250</ele>
        <time>2021-12-17T11:21:11+01:00</time>
      </trkpt>
      <trkpt lat="43.39868" lon="5.34466">
        <ele>245</ele>
        <time>2021-12-17T11:21:16+01:00</time>
      </trkpt>
      <trkpt lat="43.39808" lon="5.34378">
        <ele>237</ele>
        <time>2021-12-17T11:21:21+01:00</time>
      </trkpt>
      <trkpt lat="43.39715" lon="5.34368">
        <ele>232</ele>
        <time>2021-12-17T11:21:26+01:00</time>
      </trkpt>
      <trkpt lat="43.39568" lon="5.34417">
        <ele>221</ele>
        <time>2021-12-17T11:21:31+01:00</time>
      </trkpt>
      <trkpt lat="43.39498" lon="5.34455">
        <ele>220</ele>
        <time>2021-12-17T11:21:36+01:00</time>
      </trkpt>
      <trkpt lat="43.3932" lon="5.34518">
        <ele>220</ele>
        <time>2021-12-17T11:21:41+01:00</time>
      </trkpt>
      <trkpt lat="43.3918" lon="5.34506">
        <ele>220</ele>
        <time>2021-12-17T11:21:46+01:00</time>
      </trkpt>
      <trkpt lat="43.39075" lon="5.34594">
        <ele>211</ele>
        <time>2021-12-17T11:21:51+01:00</time>
      </trkpt>
      <trkpt lat="43.39018" lon="5.34621">
        <ele>210</ele>
        <time>2021-12-17T11:21:56+01:00</time>
      </trkpt>
      <trkpt lat="43.38927" lon="5.3472">
        <ele>207</ele>
        <time>2021-12-17T11:22:01+01:00</time>
      </trkpt>
      <trkpt lat="43.38708" lon="5.34855">
        <ele>196</ele>
        <time>2021-12-17T11:22:06+01:00</time>
      </trkpt>
      <trkpt lat="43.38658" lon="5.34829">
        <ele>195</ele>
        <time>2021-12-17T11:22:11+01:00</time>
      </trkpt>
      <trkpt lat="43.38572" lon="5.34943">
        <ele>187</ele>
        <time>2021-12-17T11:22:16+01:00</time>
      </trkpt>
      <trkpt lat="43.38538" lon="5.3502">
        <ele>179</ele>
        <time>2021-12-17T11:22:21+01:00</time>
      </trkpt>
      <trkpt lat="43.3845" lon="5.35052">
        <ele>169</ele>
        <time>2021-12-17T11:22:26+01:00</time>
      </trkpt>
      <trkpt lat="43.38404" lon="5.35054">
        <ele>165</ele>
        <time>2021-12-17T11:22:31+01:00</time>
      </trkpt>
      <trkpt lat="43.38363" lon="5.35078">
        <ele>160</ele>
        <time>2021-12-17T11:22:36+01:00</time>
      </trkpt>
      <trkpt lat="43.38268" lon="5.35037">
        <ele>160</ele>
        <time>2021-12-17T11:22:41+01:00</time>
      </trkpt>
      <trkpt lat="43.38154" lon="5.35086">
        <ele>160</ele>
        <time>2021-12-17T11:22:46+01:00</time>
      </trkpt>
      <trkpt lat="43.3812" lon="5.35089">
        <ele>160</ele>
        <time>2021-12-17T11:22:51+01:00</time>
      </trkpt>
      <trkpt lat="43.38107" lon="5.35123">
        <ele>160</ele>
        <time>2021-12-17T11:22:56+01:00</time>
      </trkpt>
      <trkpt lat="43.3775" lon="5.35374">
        <ele>159</ele>
        <time>2021-12-17T11:23:01+01:00</time>
      </trkpt>
      <trkpt lat="43.37714" lon="5.35453">
        <ele>154</ele>
        <time>2021-12-17T11:23:06+01:00</time>
      </trkpt>
      <trkpt lat="43.37693" lon="5.35636">
        <ele>153</ele>
        <time>2021-12-17T11:23:11+01:00</time>
      </trkpt>
      <trkpt lat="43.37658" lon="5.35852">
        <ele>150</ele>
        <time>2021-12-17T11:23:16+01:00</time>
      </trkpt>
      <trkpt lat="43.37634" lon="5.35856">
        <ele>150</ele>
        <time>2021-12-17T11:23:21+01:00</time>
      </trkpt>
      <trkpt lat="43.37676" lon="5.35934">
        <ele>152</ele>
        <time>2021-12-17T11:23:26+01:00</time>
      </trkpt>
      <trkpt lat="43.37763" lon="5.35813">
        <ele>152</ele>
        <time>2021-12-17T11:23:31+01:00</time>
      </trkpt>
      <trkpt lat="43.37871" lon="5.35722">
        <ele>151</ele>
        <time>2021-12-17T11:23:36+01:00</time>
      </trkpt>
      <trkpt lat="43.37863" lon="5.35688">
        <ele>151</ele>
        <time>2021-12-17T11:23:41+01:00</time>
      </trkpt>
      <trkpt lat="43.37894" lon="5.3557">
        <ele>162</ele>
        <time>2021-12-17T11:23:46+01:00</time>
      </trkpt>
      <trkpt lat="43.37912" lon="5.35578">
        <ele>164</ele>
        <time>2021-12-17T11:23:51+01:00</time>
      </trkpt>
    </trkseg>
  </trk>
</gpx>